Time;durP1;ratioP1;P1;durP2;ratioP2;P2;SDS_P1;SDS_P2;PMS_P1;PMS_P2;Temp;Humidity;BMP_temperature;BMP_pressure;BME280_temperature;BME280_humidity;BME280_pressure;Samples;Min_cycle;Max_cycle;Signal;HPM_P1;HPM_P2
2021/07/25 10:40:30;;;;;;;7.53;5.18;;;;;;;27.24;56.05;97401.81;5042770;28;20406;-59
2021/07/25 10:42:55;;;;;;;10.52;5.00;;;;;;;28.10;53.01;97398.69;5035193;28;20041;-61
2021/07/25 10:46:11;;;;;;;7.60;4.45;;;;;;;27.57;53.95;97388.94;5051946;27;20423;-59
2021/07/25 10:48:37;;;;;;;9.27;4.93;;;;;;;28.07;52.26;97389.16;5020528;28;20635;-59
2021/07/25 10:51:11;;;;;;;8.77;4.60;;;;;;;28.52;51.21;97383.63;5019345;28;20786;-60
2021/07/25 10:53:36;;;;;;;8.38;4.88;;;;;;;29.13;50.52;97388.50;5022224;28;20041;-59
2021/07/25 10:56:02;;;;;;;7.53;4.50;;;;;;;29.64;48.91;97384.69;5021894;28;20045;-59
2021/07/25 10:58:28;;;;;;;7.10;4.35;;;;;;;29.36;49.53;97389.09;5022999;28;20033;-59
2021/07/25 11:00:55;;;;;;;8.50;4.80;;;;;;;30.60;46.94;97384.63;5023022;28;20026;-58
2021/07/25 11:03:29;;;;;;;6.03;4.15;;;;;;;29.79;47.85;97383.56;5021130;28;20022;-61
2021/07/25 11:06:07;;;;;;;7.50;4.60;;;;;;;31.12;44.86;97374.91;5021647;28;20041;-60
2021/07/25 11:08:33;;;;;;;6.18;4.28;;;;;;;30.79;45.63;97382.97;5022489;28;20064;-58
2021/07/25 11:10:59;;;;;;;7.72;4.40;;;;;;;33.18;42.12;97368.72;5022530;28;20045;-60
2021/07/25 11:13:41;;;;;;;7.07;4.25;;;;;;;32.08;42.56;97370.69;5023281;28;20638;-58
2021/07/25 11:16:32;;;;;;;6.93;4.10;;;;;;;33.00;41.49;97358.66;5029345;28;20037;-60
2021/07/25 11:19:22;;;;;;;8.35;4.10;;;;;;;31.94;44.13;97358.28;5025363;28;20029;-59
2021/07/25 11:21:53;;;;;;;6.82;4.25;;;;;;;30.59;45.71;97352.56;5021414;28;20041;-61
2021/07/25 11:24:18;;;;;;;9.60;4.17;;;;;;;30.37;46.65;97358.09;5021826;28;20495;-59
2021/07/25 11:26:51;;;;;;;6.88;4.22;;;;;;;29.46;47.52;97361.88;5021882;28;20277;-62
2021/07/25 11:29:18;;;;;;;7.85;4.30;;;;;;;30.54;45.10;97358.53;5024169;28;20053;-63
2021/07/25 11:31:46;;;;;;;7.15;4.18;;;;;;;29.06;50.30;97367.00;5017301;28;20037;-62
2021/07/25 11:34:14;;;;;;;7.97;4.30;;;;;;;29.54;47.76;97358.22;5022727;28;20025;-59
2021/07/25 11:36:40;;;;;;;8.50;4.60;;;;;;;28.91;47.99;97359.03;5028929;28;20265;-60
2021/07/25 11:39:07;;;;;;;7.22;4.50;;;;;;;28.55;50.54;97364.53;5021858;28;20554;-60
2021/07/25 11:41:35;;;;;;;7.50;4.30;;;;;;;29.07;50.26;97367.81;5020915;28;20071;-58
2021/07/25 11:44:05;;;;;;;6.68;4.03;;;;;;;29.01;50.33;97364.88;5019422;28;21682;-60
2021/07/25 11:46:35;;;;;;;7.07;4.38;;;;;;;28.60;50.59;97368.28;5021371;28;20837;-60
2021/07/25 11:49:02;;;;;;;6.97;4.40;;;;;;;28.47;52.03;97365.44;5022376;28;20072;-62
2021/07/25 11:51:27;;;;;;;11.20;4.43;;;;;;;28.25;51.18;97364.59;5021670;28;20091;-59
2021/07/25 11:53:53;;;;;;;6.22;4.65;;;;;;;28.71;50.70;97368.75;5021275;28;20021;-59
2021/07/25 11:56:18;;;;;;;6.50;4.45;;;;;;;28.25;51.28;97365.44;5014471;28;20034;-60
2021/07/25 11:59:01;;;;;;;5.03;4.00;;;;;;;28.70;52.41;97370.63;5006209;28;20075;-61
2021/07/25 12:01:26;;;;;;;7.82;4.30;;;;;;;28.75;51.72;97362.00;5008608;28;20653;-59
2021/07/25 12:03:52;;;;;;;7.43;4.25;;;;;;;28.70;52.49;97377.84;5009099;28;20024;-59
2021/07/25 12:06:18;;;;;;;7.07;4.25;;;;;;;29.10;51.87;97375.50;5006368;28;20133;-62
2021/07/25 12:09:06;;;;;;;8.45;5.15;;;;;;;28.62;52.39;97382.34;5006663;28;20037;-59
2021/07/25 12:11:34;;;;;;;6.25;4.40;;;;;;;28.76;52.64;97380.56;5007524;28;20867;-61
2021/07/25 12:14:00;;;;;;;9.82;5.05;;;;;;;28.33;53.66;97383.25;5006539;28;20053;-60
2021/07/25 12:16:25;;;;;;;8.18;4.97;;;;;;;27.81;52.78;97379.78;5008402;28;20447;-62
2021/07/25 12:18:51;;;;;;;7.00;4.70;;;;;;;28.20;53.05;97381.28;5007798;28;20125;-60
2021/07/25 12:21:31;;;;;;;6.85;4.70;;;;;;;28.50;50.79;97377.66;5008867;28;20057;-63
2021/07/25 12:23:59;;;;;;;6.78;4.22;;;;;;;29.10;50.60;97367.44;5007032;28;20056;-60
2021/07/25 12:26:41;;;;;;;6.72;4.50;;;;;;;28.95;51.94;97371.03;5005330;28;20030;-59
2021/07/25 12:29:34;;;;;;;6.35;4.30;;;;;;;29.32;50.70;97365.53;5009833;28;20033;-60
2021/07/25 12:31:59;;;;;;;6.57;4.30;;;;;;;28.61;50.15;97369.94;5006318;28;20062;-61
2021/07/25 12:34:25;;;;;;;7.60;4.63;;;;;;;28.80;49.75;97367.59;5006612;28;20092;-62
2021/07/25 12:36:50;;;;;;;7.07;4.70;;;;;;;28.80;50.15;97367.59;5005117;28;20038;-62
2021/07/25 12:39:19;;;;;;;7.65;4.45;;;;;;;28.39;50.68;97370.94;5005936;28;20025;-60
2021/07/25 12:41:44;;;;;;;7.28;4.75;;;;;;;28.49;51.09;97370.59;5005366;28;20073;-60
2021/07/25 12:44:24;;;;;;;7.93;4.55;;;;;;;28.21;51.32;97368.69;5005695;28;20128;-61
2021/07/25 12:46:49;;;;;;;7.05;4.47;;;;;;;27.81;51.31;97374.41;5004485;28;20077;-61
2021/07/25 12:49:14;;;;;;;8.05;4.82;;;;;;;28.27;49.29;97368.75;5004671;28;20129;-62
2021/07/25 12:51:43;;;;;;;7.97;4.75;;;;;;;28.47;49.27;97373.47;5005636;28;20125;-63
2021/07/25 12:54:08;;;;;;;10.30;4.80;;;;;;;28.46;48.53;97372.66;5006801;28;20052;-59
2021/07/25 12:56:34;;;;;;;5.95;4.28;;;;;;;28.58;48.24;97369.47;5003204;28;20656;-61
2021/07/25 12:59:03;;;;;;;5.65;4.00;;;;;;;28.56;48.45;97374.22;5006124;28;20022;-60
2021/07/25 13:04:02;;;;;;;7.03;4.47;;;;;;;28.44;49.25;97369.34;5006299;28;20123;-59
2021/07/25 13:06:39;;;;;;;5.80;4.28;;;;;;;28.54;50.21;97369.03;5004831;28;20068;-59
2021/07/25 13:09:07;;;;;;;7.22;4.07;;;;;;;29.33;48.08;97367.19;5006898;28;20380;-59
2021/07/25 13:11:34;;;;;;;7.88;4.70;;;;;;;29.30;48.28;97363.03;5006083;28;20038;-58
2021/07/25 13:14:05;;;;;;;7.20;4.20;;;;;;;29.13;49.22;97361.66;5008369;28;20028;-58
2021/07/25 13:16:30;;;;;;;6.70;4.50;;;;;;;28.91;49.32;97360.88;5005331;28;20049;-61
2021/07/25 13:18:58;;;;;;;6.95;4.20;;;;;;;29.15;49.14;97370.38;5004417;28;20035;-60
2021/07/25 13:21:24;;;;;;;6.20;4.10;;;;;;;29.29;49.06;97372.13;5006348;28;20080;-59
2021/07/25 13:23:50;;;;;;;6.28;3.97;;;;;;;29.28;49.48;97378.53;5007376;28;20037;-60
2021/07/25 13:26:16;;;;;;;8.13;3.75;;;;;;;29.12;49.13;97370.75;5004807;28;20041;-63
2021/07/25 13:28:42;;;;;;;5.35;3.90;;;;;;;28.86;49.78;97372.22;5005686;28;20025;-62
2021/07/25 13:31:08;;;;;;;6.00;3.90;;;;;;;28.82;50.14;97370.91;5006961;28;20121;-59
2021/07/25 13:33:34;;;;;;;7.45;4.15;;;;;;;29.08;49.33;97381.03;5005048;28;20638;-60
2021/07/25 13:36:04;;;;;;;7.95;4.10;;;;;;;28.67;48.39;97375.53;5006486;28;20033;-60
2021/07/25 13:38:31;;;;;;;6.35;4.47;;;;;;;28.51;48.71;97374.78;5004529;28;20029;-61
2021/07/25 13:40:57;;;;;;;8.57;4.20;;;;;;;28.64;48.79;97369.53;5005570;28;20041;-62
2021/07/25 13:43:24;;;;;;;6.80;4.40;;;;;;;28.20;48.55;97370.53;5006066;28;20034;-61
2021/07/25 13:45:58;;;;;;;6.90;4.30;;;;;;;29.17;47.31;97366.47;5005045;28;20046;-62
2021/07/25 13:48:33;;;;;;;5.88;4.18;;;;;;;28.94;49.06;97361.31;5004065;28;20036;-59
2021/07/25 13:51:02;;;;;;;4.60;3.88;;;;;;;29.43;49.23;97356.91;5005208;28;20516;-60
2021/07/25 13:53:28;;;;;;;6.15;4.10;;;;;;;29.20;48.94;97355.31;5008407;28;20474;-62
2021/07/25 13:55:57;;;;;;;7.28;4.40;;;;;;;28.80;50.90;97355.03;5006408;28;20038;-59
2021/07/25 13:58:22;;;;;;;7.75;4.30;;;;;;;29.14;49.26;97360.66;5006645;28;20049;-61
2021/07/25 14:00:49;;;;;;;6.45;4.00;;;;;;;28.68;49.46;97370.00;5003656;28;20116;-59
2021/07/25 14:03:14;;;;;;;8.32;4.22;;;;;;;28.82;50.28;97360.19;5005126;28;20065;-60
2021/07/25 14:05:39;;;;;;;6.90;4.30;;;;;;;28.30;51.05;97361.34;5004173;28;20157;-60
2021/07/25 14:08:05;;;;;;;6.97;4.15;;;;;;;28.03;51.08;97361.06;5006887;28;20017;-59
2021/07/25 14:10:34;;;;;;;7.28;4.13;;;;;;;28.26;50.96;97371.63;5005681;28;20060;-61
2021/07/25 14:13:01;;;;;;;5.45;4.05;;;;;;;28.07;49.91;97370.41;5005984;28;20656;-60
2021/07/25 14:15:27;;;;;;;10.23;4.32;;;;;;;27.84;51.85;97373.19;5004231;28;20156;-60
2021/07/25 14:17:53;;;;;;;6.30;4.15;;;;;;;27.51;52.62;97373.59;5003912;28;20591;-61
2021/07/25 14:20:26;;;;;;;15.63;4.60;;;;;;;27.86;52.84;97372.00;5003344;28;20571;-61
2021/07/25 14:22:51;;;;;;;6.60;4.13;;;;;;;27.50;51.79;97371.97;5003341;28;20095;-61
2021/07/25 14:25:17;;;;;;;6.05;3.92;;;;;;;27.68;51.46;97382.25;5003953;28;20034;-60
2021/07/25 14:27:44;;;;;;;5.53;3.80;;;;;;;27.64;52.29;97373.81;5005701;28;20030;-60
2021/07/25 14:30:11;;;;;;;6.05;4.10;;;;;;;27.28;51.83;97366.50;5005103;28;20049;-62
2021/07/25 14:32:39;;;;;;;6.80;4.10;;;;;;;27.38;51.74;97355.50;5005960;28;20613;-61
2021/07/25 14:35:06;;;;;;;6.38;4.22;;;;;;;27.45;51.80;97358.28;5005659;28;20094;-61
2021/07/25 14:37:32;;;;;;;5.88;4.00;;;;;;;27.07;52.57;97355.66;5025318;28;20041;-63
2021/07/25 14:39:58;;;;;;;8.40;4.10;;;;;;;27.44;52.91;97352.13;5027996;28;20036;-59
2021/07/25 14:42:23;;;;;;;6.80;4.25;;;;;;;27.42;52.55;97353.28;5023296;28;20036;-60
2021/07/25 14:44:49;;;;;;;6.28;4.32;;;;;;;27.10;53.65;97345.41;5023923;28;20341;-60
2021/07/25 14:47:14;;;;;;;7.95;4.35;;;;;;;27.27;52.94;97345.28;5024444;28;20114;-62
2021/07/25 14:49:39;;;;;;;10.30;4.53;;;;;;;26.90;54.03;97345.13;5023774;28;20033;-62
2021/07/25 14:52:05;;;;;;;6.32;4.20;;;;;;;27.27;54.92;97355.97;5024164;28;20611;-60
2021/07/25 14:54:30;;;;;;;6.30;4.13;;;;;;;27.17;55.12;97358.91;5026506;28;20029;-60
2021/07/25 14:56:56;;;;;;;6.32;4.10;;;;;;;27.49;53.22;97351.53;5024860;28;20140;-61
2021/07/25 14:59:21;;;;;;;5.90;4.13;;;;;;;27.59;53.65;97354.78;5025474;28;20021;-61
2021/07/25 15:01:46;;;;;;;6.63;4.22;;;;;;;27.46;53.75;97347.41;5023565;28;20099;-59
2021/07/25 15:04:11;;;;;;;6.85;4.25;;;;;;;27.65;53.10;97353.19;5023733;28;20021;-59
2021/07/25 15:06:37;;;;;;;6.40;4.47;;;;;;;27.78;52.79;97353.34;5025447;28;20049;-59
2021/07/25 15:09:02;;;;;;;7.30;4.85;;;;;;;27.55;54.15;97344.59;5024436;28;20200;-61
2021/07/25 15:11:28;;;;;;;7.38;4.45;;;;;;;27.39;53.33;97349.16;5022984;28;20128;-60
2021/07/25 15:13:54;;;;;;;6.30;4.00;;;;;;;27.76;53.20;97343.84;5029182;28;20529;-60
2021/07/25 15:16:20;;;;;;;6.57;4.10;;;;;;;27.05;55.02;97353.16;5025033;28;20050;-61
2021/07/25 15:18:46;;;;;;;6.80;4.25;;;;;;;27.46;54.22;97344.72;5024914;28;20013;-62
2021/07/25 15:21:17;;;;;;;5.90;4.05;;;;;;;27.61;54.16;97341.19;5028407;28;20384;-61
2021/07/25 15:23:43;;;;;;;8.82;5.07;;;;;;;27.25;54.45;97337.38;5025010;28;20179;-60
2021/07/25 15:26:08;;;;;;;6.45;4.45;;;;;;;27.16;54.32;97332.31;5026545;28;20427;-60
2021/07/25 15:28:34;;;;;;;8.27;4.68;;;;;;;27.28;53.35;97322.84;5027494;28;20479;-61
2021/07/25 15:30:59;;;;;;;6.60;4.40;;;;;;;27.15;54.08;97314.59;5024665;28;20083;-61
2021/07/25 15:33:25;;;;;;;6.40;4.47;;;;;;;26.93;54.46;97320.69;5027848;28;20025;-60
2021/07/25 15:35:50;;;;;;;6.78;4.15;;;;;;;27.54;53.69;97318.84;5028302;28;20045;-60
2021/07/25 15:38:16;;;;;;;7.38;4.43;;;;;;;27.47;53.33;97314.22;5030527;28;20111;-60
2021/07/25 15:40:41;;;;;;;7.13;4.50;;;;;;;26.90;53.59;97320.22;5026865;28;20041;-61
2021/07/25 15:43:07;;;;;;;6.75;4.30;;;;;;;27.96;52.29;97323.50;5029001;28;20104;-61
2021/07/25 15:45:32;;;;;;;6.13;4.15;;;;;;;27.42;53.70;97321.16;5028054;28;20041;-63
2021/07/25 15:47:58;;;;;;;6.97;4.20;;;;;;;27.49;53.15;97322.06;5030201;28;20029;-64
2021/07/25 15:50:24;;;;;;;6.20;4.45;;;;;;;27.61;52.43;97319.78;5029072;28;20038;-61
2021/07/25 15:52:49;;;;;;;5.70;3.92;;;;;;;27.73;52.13;97309.38;5029268;28;20031;-61
2021/07/25 15:55:14;;;;;;;5.57;4.00;;;;;;;27.95;50.36;97321.00;5028769;28;20109;-61
2021/07/25 15:57:40;;;;;;;8.02;4.15;;;;;;;27.17;51.02;97323.28;5029610;28;20132;-60
2021/07/25 16:00:08;;;;;;;6.15;3.80;;;;;;;27.65;51.47;97321.03;5028010;28;20030;-61
2021/07/25 16:02:34;;;;;;;6.68;4.07;;;;;;;27.50;51.67;97329.94;5029128;28;20021;-61
2021/07/25 16:04:59;;;;;;;5.78;4.05;;;;;;;27.73;51.45;97326.28;5028501;28;20036;-62
2021/07/25 16:07:25;;;;;;;6.50;4.18;;;;;;;27.77;51.66;97322.19;5027878;28;20128;-60
2021/07/25 16:09:53;;;;;;;5.93;3.95;;;;;;;27.49;51.62;97327.44;5029066;28;20033;-63
2021/07/25 16:12:18;;;;;;;5.72;3.90;;;;;;;27.62;51.85;97326.78;5027163;28;20033;-60
2021/07/25 16:14:44;;;;;;;6.43;3.88;;;;;;;27.55;51.10;97326.69;5028351;28;20028;-60
2021/07/25 16:17:15;;;;;;;5.70;3.85;;;;;;;27.64;51.66;97320.22;5027425;28;20061;-60
2021/07/25 16:19:40;;;;;;;5.07;3.53;;;;;;;27.23;51.22;97317.19;5027811;28;20037;-59
2021/07/25 16:22:06;;;;;;;5.20;3.50;;;;;;;26.90;51.34;97312.19;5025933;28;20122;-60
2021/07/25 16:24:34;;;;;;;5.22;3.65;;;;;;;27.41;51.17;97314.97;5026847;28;20114;-61
2021/07/25 16:27:08;;;;;;;6.55;3.70;;;;;;;27.43;51.48;97315.63;5024222;28;20134;-58
2021/07/25 16:29:39;;;;;;;5.65;3.53;;;;;;;27.25;52.31;97315.16;5028552;28;20131;-59
2021/07/25 16:32:05;;;;;;;5.13;3.50;;;;;;;27.01;51.62;97303.69;5026243;28;20524;-60
2021/07/25 16:34:30;;;;;;;5.88;3.70;;;;;;;27.09;52.55;97305.44;5027729;28;20475;-60
2021/07/25 16:36:55;;;;;;;6.00;3.72;;;;;;;26.63;53.13;97305.59;5028209;28;20041;-59
2021/07/25 16:39:22;;;;;;;6.03;4.28;;;;;;;26.93;52.81;97283.22;5018090;28;20069;-62
2021/07/25 16:41:48;;;;;;;6.65;3.88;;;;;;;26.74;52.81;97286.41;5020624;28;20429;-64
2021/07/25 16:44:13;;;;;;;5.97;3.90;;;;;;;26.61;53.16;97270.19;5026695;28;20671;-61
2021/07/25 16:46:39;;;;;;;5.72;4.03;;;;;;;26.61;52.24;97262.97;5026028;28;20103;-58
2021/07/25 16:49:04;;;;;;;6.55;4.15;;;;;;;26.36;52.27;97259.69;5027292;28;20624;-61
2021/07/25 16:51:30;;;;;;;5.65;4.30;;;;;;;26.45;52.53;97249.75;5025865;28;20040;-59
2021/07/25 16:53:55;;;;;;;7.40;4.03;;;;;;;26.62;53.11;97245.94;5026862;28;20020;-59
2021/07/25 16:56:20;;;;;;;7.75;3.88;;;;;;;26.63;53.86;97252.09;5025173;28;21067;-60
2021/07/25 16:58:46;;;;;;;6.32;4.15;;;;;;;26.64;53.99;97253.78;5026588;28;20494;-59
2021/07/25 17:01:12;;;;;;;7.55;4.43;;;;;;;26.59;54.17;97248.94;5026645;28;20465;-58
2021/07/25 17:03:38;;;;;;;7.22;4.47;;;;;;;26.94;53.88;97243.91;5026280;28;20116;-58
2021/07/25 17:06:04;;;;;;;6.75;4.10;;;;;;;27.03;54.13;97242.78;5025411;28;20048;-59
2021/07/25 17:08:30;;;;;;;6.97;4.15;;;;;;;26.92;55.23;97245.94;5023043;28;20140;-58
2021/07/25 17:10:56;;;;;;;6.55;4.13;;;;;;;26.91;54.75;97249.66;5027633;28;20048;-58
2021/07/25 17:13:21;;;;;;;8.63;4.38;;;;;;;26.76;54.55;97241.59;5026414;28;20021;-61
2021/07/25 17:15:47;;;;;;;5.53;3.90;;;;;;;26.78;54.87;97236.06;5024652;28;20415;-62
2021/07/25 17:18:14;;;;;;;7.40;4.35;;;;;;;26.86;53.11;97231.47;5026358;28;20407;-58
2021/07/25 17:20:41;;;;;;;6.22;4.22;;;;;;;27.03;53.86;97232.09;5024907;28;20047;-59
2021/07/25 17:23:06;;;;;;;12.23;4.38;;;;;;;26.80;55.60;97236.69;5026603;28;20025;-59
2021/07/25 17:25:32;;;;;;;6.93;4.07;;;;;;;26.57;55.87;97236.78;5026138;28;20044;-63
2021/07/25 17:27:58;;;;;;;7.03;4.10;;;;;;;26.66;55.20;97244.56;5026537;28;20029;-61
2021/07/25 17:30:24;;;;;;;7.25;4.20;;;;;;;26.79;55.11;97235.88;5027779;28;20140;-59
2021/07/25 17:32:49;;;;;;;8.25;4.13;;;;;;;26.81;55.36;97238.38;5025171;28;20032;-60
2021/07/25 17:35:14;;;;;;;7.65;4.40;;;;;;;26.53;56.25;97247.00;5039537;28;20056;-59
2021/07/25 17:37:40;;;;;;;7.00;4.28;;;;;;;26.78;56.35;97244.09;5025729;28;20060;-58
2021/07/25 17:40:08;;;;;;;6.40;4.28;;;;;;;26.52;55.54;97258.69;5026376;28;20896;-60
2021/07/25 17:42:34;;;;;;;7.07;4.63;;;;;;;25.96;56.46;97251.81;5026170;28;20017;-60
2021/07/25 17:45:01;;;;;;;7.60;4.10;;;;;;;26.52;55.80;97256.03;5025924;28;20384;-59
2021/07/25 17:47:27;;;;;;;5.90;4.18;;;;;;;26.63;55.80;97263.63;5024593;28;20110;-57
2021/07/25 17:49:52;;;;;;;5.55;4.00;;;;;;;26.55;55.70;97277.88;5026627;28;20025;-58
2021/07/25 17:52:17;;;;;;;7.38;4.45;;;;;;;26.06;57.24;97277.47;5025852;28;20153;-58
2021/07/25 17:54:43;;;;;;;5.88;4.20;;;;;;;26.04;57.66;97287.50;5025404;28;20222;-57
2021/07/25 17:57:08;;;;;;;7.57;4.43;;;;;;;25.93;57.23;97294.94;5024649;28;20094;-57
2021/07/25 17:59:36;;;;;;;7.78;4.22;;;;;;;26.16;56.72;97302.13;5026455;28;20072;-59
2021/07/25 18:02:01;;;;;;;10.70;4.97;;;;;;;26.15;55.93;97313.81;5023541;28;20547;-59
2021/07/25 18:04:27;;;;;;;6.38;4.50;;;;;;;25.76;57.37;97306.69;5025634;28;20041;-58
2021/07/25 18:06:52;;;;;;;7.53;4.90;;;;;;;26.01;56.47;97306.56;5025331;28;20046;-58
2021/07/25 18:09:19;;;;;;;7.82;5.20;;;;;;;25.96;58.06;97313.28;5025389;28;20025;-59
2021/07/25 18:11:44;;;;;;;8.13;4.93;;;;;;;25.56;57.97;97320.47;5024238;28;20041;-57
2021/07/25 18:14:10;;;;;;;6.90;4.65;;;;;;;25.78;57.75;97323.38;5023715;28;20021;-59
2021/07/25 18:16:35;;;;;;;8.35;4.65;;;;;;;25.77;57.57;97329.75;5024108;28;20060;-57
2021/07/25 18:19:01;;;;;;;8.73;4.90;;;;;;;25.91;57.51;97345.00;5023693;28;20035;-58
2021/07/25 18:21:26;;;;;;;5.28;4.35;;;;;;;25.89;58.73;97349.69;5024509;28;20038;-59
2021/07/25 18:23:55;;;;;;;5.95;4.50;;;;;;;25.58;59.84;97355.88;5024715;28;20409;-59
2021/07/25 18:26:22;;;;;;;8.00;5.10;;;;;;;25.57;60.38;97364.88;5025435;28;20757;-58
2021/07/25 18:28:48;;;;;;;6.80;4.85;;;;;;;25.83;59.92;97374.44;5032878;28;20045;-59
2021/07/25 18:31:13;;;;;;;8.45;5.18;;;;;;;25.48;61.89;97381.94;5025237;28;20484;-58
2021/07/25 18:33:39;;;;;;;7.15;5.20;;;;;;;25.42;62.28;97374.63;5024935;28;20034;-59
2021/07/25 18:36:08;;;;;;;7.40;4.93;;;;;;;25.26;63.03;97382.69;5022010;28;20037;-59
2021/07/25 18:38:36;;;;;;;8.30;5.50;;;;;;;25.24;63.37;97390.03;5024486;28;20066;-59
2021/07/25 18:41:02;;;;;;;7.32;5.00;;;;;;;25.25;63.19;97387.16;5024451;28;20191;-60
2021/07/25 18:43:34;;;;;;;9.82;5.10;;;;;;;25.12;63.85;97389.50;5023676;28;20037;-61
2021/07/25 18:46:06;;;;;;;11.82;5.40;;;;;;;25.33;63.30;97386.34;5025362;28;20057;-61
2021/07/25 18:48:32;;;;;;;8.82;4.90;;;;;;;25.01;64.57;97390.69;5024795;28;20029;-61
2021/07/25 18:50:58;;;;;;;8.80;5.30;;;;;;;25.14;64.64;97395.50;5025291;28;20060;-60
2021/07/25 18:53:24;;;;;;;8.38;5.40;;;;;;;25.01;64.88;97399.53;5025193;28;20403;-60
2021/07/25 18:55:49;;;;;;;8.27;5.97;;;;;;;24.78;65.71;97402.06;5026028;28;20030;-59
2021/07/25 18:58:15;;;;;;;9.48;5.90;;;;;;;24.87;65.72;97399.38;5023824;28;20029;-60
2021/07/25 19:00:44;;;;;;;10.32;5.43;;;;;;;25.07;64.95;97406.03;5024321;28;20029;-59
2021/07/25 19:03:10;;;;;;;8.38;5.00;;;;;;;24.90;64.99;97404.38;5023153;28;20492;-58
2021/07/25 19:05:35;;;;;;;10.70;6.03;;;;;;;24.80;64.72;97404.56;5022176;28;20041;-59
2021/07/25 19:08:00;;;;;;;9.90;5.75;;;;;;;24.63;65.30;97409.06;5025823;28;20029;-58
2021/07/25 19:10:26;;;;;;;7.03;4.88;;;;;;;24.71;65.07;97406.38;5027423;28;20133;-58
2021/07/25 19:12:52;;;;;;;7.88;5.38;;;;;;;24.62;65.48;97413.53;5030966;28;20025;-58
2021/07/25 19:15:18;;;;;;;7.60;5.40;;;;;;;24.34;67.13;97405.00;5027475;28;20543;-59
2021/07/25 19:17:43;;;;;;;7.55;5.10;;;;;;;24.43;67.44;97401.34;5029086;28;20092;-59
2021/07/25 19:20:09;;;;;;;11.23;5.50;;;;;;;24.46;67.07;97405.50;5027170;28;20136;-60
2021/07/25 19:22:34;;;;;;;7.78;5.13;;;;;;;24.41;67.20;97400.69;5028372;28;20112;-61
2021/07/25 19:25:00;;;;;;;6.43;4.72;;;;;;;24.48;66.97;97395.50;5029380;28;20162;-60
2021/07/25 19:27:25;;;;;;;7.43;5.45;;;;;;;24.33;68.63;97399.81;5026481;28;20034;-60
2021/07/25 19:29:51;;;;;;;6.63;4.72;;;;;;;24.49;68.78;97401.69;5029635;28;20027;-61
2021/07/25 19:32:16;;;;;;;7.57;5.10;;;;;;;24.31;68.90;97402.66;5028528;28;20110;-60
2021/07/25 19:34:41;;;;;;;7.68;5.72;;;;;;;23.90;70.71;97410.56;5032106;28;20028;-58
2021/07/25 19:37:07;;;;;;;8.68;5.30;;;;;;;23.93;70.80;97423.56;5028312;28;20048;-62
2021/07/25 19:39:34;;;;;;;10.55;6.43;;;;;;;23.85;70.98;97418.19;5028412;28;20033;-60
2021/07/25 19:42:00;;;;;;;9.80;5.90;;;;;;;23.87;70.29;97424.19;5028504;28;20419;-60
2021/07/25 19:44:27;;;;;;;7.47;5.70;;;;;;;23.63;71.20;97412.41;5027342;28;20700;-59
2021/07/25 19:46:54;;;;;;;6.20;4.80;;;;;;;24.17;70.31;97413.94;5028523;28;20090;-60
2021/07/25 19:49:21;;;;;;;7.88;5.45;;;;;;;23.73;71.45;97425.63;5028610;28;20032;-59
2021/07/25 19:51:46;;;;;;;9.82;5.60;;;;;;;23.66;71.08;97420.09;5026937;28;20144;-60
2021/07/25 19:54:12;;;;;;;7.95;5.68;;;;;;;23.38;72.17;97411.47;5027487;28;20032;-59
2021/07/25 19:56:37;;;;;;;11.18;6.38;;;;;;;23.42;71.84;97415.47;5027238;28;20044;-58
2021/07/25 19:59:05;;;;;;;9.43;6.32;;;;;;;23.00;73.46;97418.84;5028057;28;20588;-58
2021/07/25 20:01:31;;;;;;;7.68;5.72;;;;;;;23.17;73.58;97419.00;5027742;28;20041;-59
2021/07/25 20:03:56;;;;;;;7.55;5.35;;;;;;;23.13;72.59;97430.94;5028096;28;20597;-59
2021/07/25 20:06:22;;;;;;;8.98;5.53;;;;;;;23.27;72.64;97427.72;5028025;28;20057;-59
2021/07/25 20:08:47;;;;;;;9.00;5.72;;;;;;;23.18;72.27;97413.50;5025933;28;20033;-59
2021/07/25 20:11:12;;;;;;;8.13;5.00;;;;;;;23.09;72.68;97411.78;5026053;28;20514;-59
2021/07/25 20:13:39;;;;;;;7.22;5.15;;;;;;;23.30;72.17;97411.41;5042348;28;20021;-59
2021/07/25 20:16:07;;;;;;;8.75;6.13;;;;;;;23.17;73.05;97406.50;5026831;28;20051;-59
2021/07/25 20:18:32;;;;;;;9.50;6.57;;;;;;;23.19;73.87;97412.50;5035303;28;20095;-59
2021/07/25 20:20:59;;;;;;;8.63;5.88;;;;;;;23.04;75.17;97419.41;5024241;28;20030;-59
2021/07/25 20:23:25;;;;;;;7.43;5.78;;;;;;;23.05;73.71;97423.75;5027948;28;20052;-57
2021/07/25 20:25:51;;;;;;;7.07;5.10;;;;;;;23.14;73.76;97422.81;5025402;28;20038;-58
2021/07/25 20:28:16;;;;;;;9.13;5.60;;;;;;;23.27;73.93;97428.53;5027012;28;20528;-59
2021/07/25 20:30:42;;;;;;;8.20;5.70;;;;;;;23.06;74.31;97433.38;5026566;28;20462;-58
2021/07/25 20:33:10;;;;;;;8.15;5.75;;;;;;;22.91;75.47;97443.69;5026161;28;20049;-60
2021/07/25 20:35:39;;;;;;;7.60;5.95;;;;;;;22.80;76.06;97431.47;5024913;28;20044;-59
2021/07/25 20:38:05;;;;;;;8.98;6.00;;;;;;;22.75;76.90;97439.09;5028194;28;20025;-59
2021/07/25 20:40:31;;;;;;;7.60;5.78;;;;;;;22.79;76.75;97435.16;5027260;28;20037;-59
2021/07/25 20:42:57;;;;;;;8.98;6.43;;;;;;;22.49;76.97;97429.22;5026685;28;20044;-59
2021/07/25 20:45:23;;;;;;;13.52;6.55;;;;;;;22.32;77.74;97428.22;5027627;28;20037;-58
2021/07/25 20:47:48;;;;;;;11.10;6.57;;;;;;;22.30;78.31;97442.66;5028330;28;20133;-58
2021/07/25 20:50:14;;;;;;;7.90;5.82;;;;;;;22.59;79.06;97444.25;5027709;28;20568;-58
2021/07/25 20:52:44;;;;;;;11.55;6.15;;;;;;;22.42;78.96;97444.09;5024039;28;20609;-58
2021/07/25 20:55:10;;;;;;;8.85;6.05;;;;;;;22.39;79.29;97451.56;5026219;28;20030;-58
2021/07/25 20:57:36;;;;;;;8.30;6.28;;;;;;;22.36;78.62;97450.03;5026721;28;20025;-59
2021/07/25 21:00:01;;;;;;;8.25;5.70;;;;;;;22.51;79.45;97453.81;5027926;28;20038;-58
2021/07/25 21:02:27;;;;;;;8.20;5.45;;;;;;;22.59;79.70;97452.22;5027628;28;20037;-59
2021/07/25 21:04:52;;;;;;;7.70;5.55;;;;;;;22.47;80.46;97455.13;5027518;28;20057;-60
2021/07/25 21:07:22;;;;;;;10.73;6.25;;;;;;;22.11;80.38;97457.72;5026954;28;20040;-58
2021/07/25 21:09:49;;;;;;;9.77;5.72;;;;;;;22.12;80.65;97451.41;5026397;28;20028;-60
2021/07/25 21:12:14;;;;;;;10.35;6.50;;;;;;;21.84;81.42;97450.59;5025815;28;20033;-59
2021/07/25 21:14:40;;;;;;;12.43;7.25;;;;;;;21.43;83.86;97447.38;5025847;28;20032;-60
2021/07/25 21:17:05;;;;;;;11.48;6.25;;;;;;;21.50;83.87;97448.47;5026199;28;20800;-59
2021/07/25 21:19:33;;;;;;;11.55;6.47;;;;;;;21.66;83.11;97450.53;5024880;28;20112;-58
2021/07/25 21:21:59;;;;;;;9.13;6.50;;;;;;;21.58;83.68;97450.44;5024945;28;20037;-60
2021/07/25 21:24:24;;;;;;;8.23;6.03;;;;;;;21.59;84.08;97452.09;5026490;28;20032;-60
2021/07/25 21:26:49;;;;;;;11.27;7.03;;;;;;;21.43;84.94;97457.13;5025307;28;20140;-60
2021/07/25 21:29:15;;;;;;;10.07;6.20;;;;;;;21.60;84.87;97463.56;5025134;28;20029;-59
2021/07/25 21:31:40;;;;;;;10.98;7.13;;;;;;;21.46;85.08;97462.19;5025616;28;20041;-61
2021/07/25 21:34:05;;;;;;;9.38;6.63;;;;;;;21.34;85.72;97454.38;5024803;28;20232;-60
2021/07/25 21:36:32;;;;;;;9.52;6.97;;;;;;;21.22;86.97;97444.91;5022667;28;20047;-57
2021/07/25 21:38:57;;;;;;;9.30;6.68;;;;;;;21.41;86.82;97448.47;5024094;28;20912;-57
2021/07/25 21:41:22;;;;;;;6.45;4.90;;;;;;;21.92;88.91;97455.97;5024698;28;20045;-59
2021/07/25 21:43:48;;;;;;;6.85;5.20;;;;;;;21.88;85.87;97445.81;5022603;28;20029;-59
2021/07/25 21:46:13;;;;;;;8.48;6.28;;;;;;;21.52;85.57;97448.34;5023188;28;20087;-60
2021/07/25 21:48:39;;;;;;;8.82;6.50;;;;;;;21.17;87.30;97457.75;5025893;28;20686;-60
2021/07/25 21:51:05;;;;;;;11.38;6.78;;;;;;;20.81;89.15;97465.50;5027102;28;20040;-58
2021/07/25 21:53:31;;;;;;;9.55;6.60;;;;;;;20.69;90.59;97466.59;5039610;28;20032;-57
2021/07/25 21:55:56;;;;;;;9.20;7.07;;;;;;;20.56;91.55;97464.19;5025803;28;20037;-61
2021/07/25 21:58:22;;;;;;;11.18;7.13;;;;;;;20.78;90.92;97476.38;5025528;28;20028;-59
2021/07/25 22:00:53;;;;;;;12.63;6.50;;;;;;;20.94;91.16;97483.75;5022883;28;20033;-59
2021/07/25 22:06:12;;;;;;;11.68;7.43;;;;;;;20.55;91.59;97489.88;5022576;28;20206;-58
2021/07/25 22:08:43;;;;;;;8.27;5.93;;;;;;;20.80;90.77;97493.78;5022444;28;20033;-58
2021/07/25 22:11:12;;;;;;;9.90;6.80;;;;;;;20.86;91.56;97516.28;5020886;28;21012;-59
2021/07/25 22:13:38;;;;;;;10.00;7.05;;;;;;;20.67;91.25;97511.78;5022432;28;20025;-59
2021/07/25 22:16:04;;;;;;;10.50;7.13;;;;;;;20.53;92.27;97507.72;5021335;28;20048;-59